Gil Vicente — CSKG — position and weather

sailwx.info

Track history (hours):
 
Tides and Currents Weather Stations Pressure Air Temp Water Temp Dewpoint Dewpoint Depression Visibility Wind Speed Wind Dir Waves Ship Positions

Gil Vicente

Last reported at 2015-Mar-27 20:33 UTC. Time now 2015-Mar-27 20:58 UTC.
Position N 38°39' W 009°05'.

Length 49 m.

Type: Passenger vessel. MMSI: 263701390.

Date/timePositionNaut miles runAvg speedWind from/ knotsBaromVisibWave heightAir tempDewpointWater temp
2015-Mar-27 20:33N 38°39' W 009°05'3 3.5
2015-Mar-27 19:33N 38°42' W 009°08'2 1.7
2015-Mar-27 18:33N 38°40' W 009°07'2 2.1
2015-Mar-27 17:34N 38°39' W 009°05'0 0.0
2015-Mar-27 16:33N 38°39' W 009°05'0 0.0
2015-Mar-27 15:33N 38°39' W 009°05'0 0.0
2015-Mar-27 11:33N 38°39' W 009°05'1 1.3
2015-Mar-27 10:33N 38°40' W 009°06'0 0.4
2015-Mar-27 09:33N 38°39' W 009°06'3 2.9
2015-Mar-27 08:33N 38°42' W 009°08'1 0.6
2015-Mar-27 07:33N 38°42' W 009°08'4 4.1
2015-Mar-27 06:34N 38°39' W 009°05'0 0.0
2015-Mar-26 21:21N 38°39' W 009°05'3 4.4
2015-Mar-26 20:34N 38°42' W 009°08'3 3.1
2015-Mar-26 19:34N 38°39' W 009°06'3 3.0
2015-Mar-26 18:33N 38°42' W 009°08'1 0.8
2015-Mar-26 17:34N 38°42' W 009°08'1 0.9
2015-Mar-26 16:34N 38°42' W 009°08'3 3.3
2015-Mar-26 15:33N 38°39' W 009°05'2 2.0
2015-Mar-26 14:34N 38°40' W 009°07'0 0.3
2015-Mar-26 13:34N 38°40' W 009°07'2 1.5
2015-Mar-26 12:33N 38°39' W 009°05'0 0.0
2015-Mar-26 11:33N 38°39' W 009°05'3 2.8
2015-Mar-26 10:34N 38°41' W 009°08'3 2.9
2015-Mar-26 09:33N 38°39' W 009°05'1 1.0
2015-Mar-26 08:34N 38°39' W 009°06'3 3.2
2015-Mar-26 07:33N 38°42' W 009°08'0 0.3
2015-Mar-26 06:34N 38°42' W 009°08'0 0.0
2015-Mar-26 05:34N 38°42' W 009°08'4 1.3
2015-Mar-26 02:24N 38°39' W 009°05'0 0.5
2015-Mar-26 01:33N 38°39' W 009°05'0 0.1
2015-Mar-26 00:34N 38°39' W 009°05'0 0.3
2015-Mar-25 23:34N 38°39' W 009°05'1 1.5
2015-Mar-25 22:33N 38°40' W 009°06'0 0.4
2015-Mar-25 21:34N 38°40' W 009°07'2 2.0
2015-Mar-25 20:34N 38°39' W 009°05'0 0.0
2015-Mar-25 19:33N 38°39' W 009°05'1 0.9
2015-Mar-25 18:33N 38°39' W 009°06'3 3.0
2015-Mar-25 17:33N 38°42' W 009°08'4 3.7
2015-Mar-25 16:33N 38°39' W 009°05'3 0.5
2015-Mar-25 10:34N 38°41' W 009°08'2 2.1
2015-Mar-25 09:34N 38°39' W 009°06'3 3.3
2015-Mar-25 08:33N 38°42' W 009°08'0 0.3
2015-Mar-25 07:34N 38°42' W 009°08'0 0.0
2015-Mar-24 20:34N 38°42' W 009°08'0 0.2
2015-Mar-24 19:33N 38°42' W 009°08'1 0.7
2015-Mar-24 18:34N 38°42' W 009°08'3 3.3
2015-Mar-24 17:33N 38°39' W 009°05'4 3.7
2015-Mar-24 16:33N 38°42' W 009°08'2 1.5
2015-Mar-24 15:33N 38°41' W 009°08'1 0.7
2015-Mar-24 14:34N 38°41' W 009°08'1 0.6
2015-Mar-24 13:34N 38°41' W 009°08'0 0.1
2015-Mar-24 12:33N 38°41' W 009°08'0 0.0
2015-Mar-24 11:33N 38°41' W 009°08'3 2.8
2015-Mar-24 10:34N 38°39' W 009°05'1 1.4
2015-Mar-24 09:34N 38°40' W 009°06'3 2.9
2015-Mar-24 08:33N 38°42' W 009°08'1 0.9
2015-Mar-24 07:34N 38°42' W 009°08'3 3.5
2015-Mar-24 06:34N 38°39' W 009°05'4 0.3
2015-Mar-23 19:34N 38°42' W 009°08'0 0.3
2015-Mar-23 18:33N 38°42' W 009°08'3 2.6
2015-Mar-23 17:33N 38°40' W 009°07'1 1.5
2015-Mar-23 16:33N 38°39' W 009°05'1 1.0
2015-Mar-23 15:33N 38°40' W 009°06'1 1.3
2015-Mar-23 14:33N 38°39' W 009°05'0 0.0
2015-Mar-23 13:33N 38°39' W 009°05'0 0.0
2015-Mar-23 12:34N 38°39' W 009°05'0 0.0
2015-Mar-23 11:33N 38°39' W 009°05'0 0.1
2015-Mar-23 10:33N 38°39' W 009°05'2 1.6
2015-Mar-23 09:34N 38°40' W 009°06'1 0.8
2015-Mar-23 08:34N 38°40' W 009°07'2 2.3
2015-Mar-23 07:33N 38°39' W 009°05'0 0.0
2015-Mar-23 06:33N 38°39' W 009°05'3 0.3
2015-Mar-22 21:33N 38°41' W 009°08'3 2.8
2015-Mar-22 20:33N 38°39' W 009°05'2 1.7
2015-Mar-22 19:33N 38°40' W 009°07'1 0.7
2015-Mar-22 18:34N 38°39' W 009°06'1 0.9
2015-Mar-22 17:33N 38°40' W 009°07'0 0.5
2015-Mar-22 16:33N 38°40' W 009°06'0 0.0
2015-Mar-22 15:33N 38°40' W 009°06'0 0.1
2015-Mar-22 14:33N 38°40' W 009°06'0 0.4
2015-Mar-22 13:33N 38°40' W 009°06'1 0.2
2015-Mar-22 07:34N 38°39' W 009°05'1 1.1
2015-Mar-22 06:33N 38°40' W 009°06'1 1.1
2015-Mar-22 05:33N 38°39' W 009°05'0 0.0
2015-Mar-20 21:32N 38°39' W 009°05'0 0.0
2015-Mar-20 20:33N 38°39' W 009°05'4 3.8
2015-Mar-20 19:33N 38°42' W 009°08'2 2.3
2015-Mar-20 18:33N 38°40' W 009°06'2 1.6
2015-Mar-20 17:34N 38°39' W 009°05'0 0.1
2015-Mar-20 16:33N 38°39' W 009°05'0 0.2
2015-Mar-20 15:33N 38°39' W 009°05'0 0.0
2015-Mar-20 13:31N 38°39' W 009°05'0 0.0
2015-Mar-20 12:34N 38°39' W 009°05'0 0.0
2015-Mar-20 11:33N 38°39' W 009°05'1 1.1
2015-Mar-20 10:33N 38°40' W 009°06'1 0.6
2015-Mar-20 09:34N 38°39' W 009°06'3 3.3
2015-Mar-20 08:33N 38°42' W 009°08'0 0.3
2015-Mar-20 07:34N 38°42' W 009°08'4 4.0
2015-Mar-20 06:33N 38°39' W 009°05'0 0.0
2015-Mar-19 21:17N 38°39' W 009°05'3 4.3
2015-Mar-19 20:34N 38°41' W 009°08'2 2.3
2015-Mar-19 19:33N 38°39' W 009°06'3 3.2
2015-Mar-19 18:34N 38°42' W 009°08'0 0.2
2015-Mar-19 17:33N 38°42' W 009°08'1 0.8
2015-Mar-19 16:34N 38°42' W 009°08'4 3.5
2015-Mar-19 15:33N 38°39' W 009°05'2 1.8
2015-Mar-19 14:33N 38°40' W 009°07'0 0.1
2015-Mar-19 13:34N 38°40' W 009°07'2 1.6
2015-Mar-19 12:33N 38°39' W 009°05'0 0.0
2015-Mar-19 11:33N 38°39' W 009°05'3 2.7
2015-Mar-19 10:33N 38°41' W 009°08'3 2.8
2015-Mar-19 09:34N 38°39' W 009°05'1 0.9
2015-Mar-19 08:34N 38°39' W 009°06'3 3.1
2015-Mar-19 07:33N 38°42' W 009°08'0 0.4
2015-Mar-19 06:33N 38°42' W 009°08'0 0.0
2015-Mar-19 05:34N 38°42' W 009°08'4 1.3
2015-Mar-19 02:24N 38°39' W 009°05'0 0.5
2015-Mar-19 01:33N 38°39' W 009°05'0 0.0
2015-Mar-19 00:33N 38°39' W 009°05'0 0.1
2015-Mar-18 23:33N 38°39' W 009°05'1 1.2
2015-Mar-18 22:33N 38°40' W 009°07'0 0.2
2015-Mar-18 21:34N 38°40' W 009°06'1 1.5
2015-Mar-18 20:33N 38°39' W 009°05'0 0.0
2015-Mar-18 19:33N 38°39' W 009°05'1 1.3
2015-Mar-18 18:33N 38°40' W 009°06'3 2.8
2015-Mar-18 17:33N 38°42' W 009°08'4 3.9
2015-Mar-18 16:34N 38°39' W 009°05'0 0.0
2015-Mar-18 13:27N 38°39' W 009°05'1 1.5
2015-Mar-18 12:33N 38°40' W 009°06'0 0.2
2015-Mar-18 11:34N 38°40' W 009°06'1 1.3
2015-Mar-18 10:34N 38°39' W 009°05'0 0.0
2015-Mar-18 09:33N 38°39' W 009°05'0 0.0
2015-Mar-18 08:33N 38°39' W 009°05'1 0.7
2015-Mar-18 07:34N 38°39' W 009°06'1 0.6
2015-Mar-18 06:34N 38°39' W 009°05'4 0.4
2015-Mar-17 20:33N 38°42' W 009°08'  
Track history (hours):
 
Tides and Currents Weather Stations Pressure Air Temp Water Temp Dewpoint Dewpoint Depression Visibility Wind Speed Wind Dir Waves Ship Positions

Gil Vicente

Last reported at 2015-Mar-27 20:33 UTC. Time now 2015-Mar-27 20:58 UTC.
Position N 38°39' W 009°05'.

Length 49 m.

Type: Passenger vessel. MMSI: 263701390.

Date/timePositionNaut miles runAvg speedWind from/ knotsBaromVisibWave heightAir tempDewpointWater temp
2015-Mar-27 20:33N 38°39' W 009°05'3 3.5
2015-Mar-27 19:33N 38°42' W 009°08'2 1.7
2015-Mar-27 18:33N 38°40' W 009°07'2 2.1
2015-Mar-27 17:34N 38°39' W 009°05'0 0.0
2015-Mar-27 16:33N 38°39' W 009°05'0 0.0
2015-Mar-27 15:33N 38°39' W 009°05'0 0.0
2015-Mar-27 11:33N 38°39' W 009°05'1 1.3
2015-Mar-27 10:33N 38°40' W 009°06'0 0.4
2015-Mar-27 09:33N 38°39' W 009°06'3 2.9
2015-Mar-27 08:33N 38°42' W 009°08'1 0.6
2015-Mar-27 07:33N 38°42' W 009°08'4 4.1
2015-Mar-27 06:34N 38°39' W 009°05'0 0.0
2015-Mar-26 21:21N 38°39' W 009°05'3 4.4
2015-Mar-26 20:34N 38°42' W 009°08'3 3.1
2015-Mar-26 19:34N 38°39' W 009°06'3 3.0
2015-Mar-26 18:33N 38°42' W 009°08'1 0.8
2015-Mar-26 17:34N 38°42' W 009°08'1 0.9
2015-Mar-26 16:34N 38°42' W 009°08'3 3.3
2015-Mar-26 15:33N 38°39' W 009°05'2 2.0
2015-Mar-26 14:34N 38°40' W 009°07'0 0.3
2015-Mar-26 13:34N 38°40' W 009°07'2 1.5
2015-Mar-26 12:33N 38°39' W 009°05'0 0.0
2015-Mar-26 11:33N 38°39' W 009°05'3 2.8
2015-Mar-26 10:34N 38°41' W 009°08'3 2.9
2015-Mar-26 09:33N 38°39' W 009°05'1 1.0
2015-Mar-26 08:34N 38°39' W 009°06'3 3.2
2015-Mar-26 07:33N 38°42' W 009°08'0 0.3
2015-Mar-26 06:34N 38°42' W 009°08'0 0.0
2015-Mar-26 05:34N 38°42' W 009°08'4 1.3
2015-Mar-26 02:24N 38°39' W 009°05'0 0.5
2015-Mar-26 01:33N 38°39' W 009°05'0 0.1
2015-Mar-26 00:34N 38°39' W 009°05'0 0.3
2015-Mar-25 23:34N 38°39' W 009°05'1 1.5
2015-Mar-25 22:33N 38°40' W 009°06'0 0.4
2015-Mar-25 21:34N 38°40' W 009°07'2 2.0
2015-Mar-25 20:34N 38°39' W 009°05'0 0.0
2015-Mar-25 19:33N 38°39' W 009°05'1 0.9
2015-Mar-25 18:33N 38°39' W 009°06'3 3.0
2015-Mar-25 17:33N 38°42' W 009°08'4 3.7
2015-Mar-25 16:33N 38°39' W 009°05'3 0.5
2015-Mar-25 10:34N 38°41' W 009°08'2 2.1
2015-Mar-25 09:34N 38°39' W 009°06'3 3.3
2015-Mar-25 08:33N 38°42' W 009°08'0 0.3
2015-Mar-25 07:34N 38°42' W 009°08'0 0.0
2015-Mar-24 20:34N 38°42' W 009°08'0 0.2
2015-Mar-24 19:33N 38°42' W 009°08'1 0.7
2015-Mar-24 18:34N 38°42' W 009°08'3 3.3
2015-Mar-24 17:33N 38°39' W 009°05'4 3.7
2015-Mar-24 16:33N 38°42' W 009°08'2 1.5
2015-Mar-24 15:33N 38°41' W 009°08'1 0.7
2015-Mar-24 14:34N 38°41' W 009°08'1 0.6
2015-Mar-24 13:34N 38°41' W 009°08'0 0.1
2015-Mar-24 12:33N 38°41' W 009°08'0 0.0
2015-Mar-24 11:33N 38°41' W 009°08'3 2.8
2015-Mar-24 10:34N 38°39' W 009°05'1 1.4
2015-Mar-24 09:34N 38°40' W 009°06'3 2.9
2015-Mar-24 08:33N 38°42' W 009°08'1 0.9
2015-Mar-24 07:34N 38°42' W 009°08'3 3.5
2015-Mar-24 06:34N 38°39' W 009°05'4 0.3
2015-Mar-23 19:34N 38°42' W 009°08'0 0.3
2015-Mar-23 18:33N 38°42' W 009°08'3 2.6
2015-Mar-23 17:33N 38°40' W 009°07'1 1.5
2015-Mar-23 16:33N 38°39' W 009°05'1 1.0
2015-Mar-23 15:33N 38°40' W 009°06'1 1.3
2015-Mar-23 14:33N 38°39' W 009°05'0 0.0
2015-Mar-23 13:33N 38°39' W 009°05'0 0.0
2015-Mar-23 12:34N 38°39' W 009°05'0 0.0
2015-Mar-23 11:33N 38°39' W 009°05'0 0.1
2015-Mar-23 10:33N 38°39' W 009°05'2 1.6
2015-Mar-23 09:34N 38°40' W 009°06'1 0.8
2015-Mar-23 08:34N 38°40' W 009°07'2 2.3
2015-Mar-23 07:33N 38°39' W 009°05'0 0.0
2015-Mar-23 06:33N 38°39' W 009°05'3 0.3
2015-Mar-22 21:33N 38°41' W 009°08'3 2.8
2015-Mar-22 20:33N 38°39' W 009°05'2 1.7
2015-Mar-22 19:33N 38°40' W 009°07'1 0.7
2015-Mar-22 18:34N 38°39' W 009°06'1 0.9
2015-Mar-22 17:33N 38°40' W 009°07'0 0.5
2015-Mar-22 16:33N 38°40' W 009°06'0 0.0
2015-Mar-22 15:33N 38°40' W 009°06'0 0.1
2015-Mar-22 14:33N 38°40' W 009°06'0 0.4
2015-Mar-22 13:33N 38°40' W 009°06'1 0.2
2015-Mar-22 07:34N 38°39' W 009°05'1 1.1
2015-Mar-22 06:33N 38°40' W 009°06'1 1.1
2015-Mar-22 05:33N 38°39' W 009°05'0 0.0
2015-Mar-20 21:32N 38°39' W 009°05'0 0.0
2015-Mar-20 20:33N 38°39' W 009°05'4 3.8
2015-Mar-20 19:33N 38°42' W 009°08'2 2.3
2015-Mar-20 18:33N 38°40' W 009°06'2 1.6
2015-Mar-20 17:34N 38°39' W 009°05'0 0.1
2015-Mar-20 16:33N 38°39' W 009°05'0 0.2
2015-Mar-20 15:33N 38°39' W 009°05'0 0.0
2015-Mar-20 13:31N 38°39' W 009°05'0 0.0
2015-Mar-20 12:34N 38°39' W 009°05'0 0.0
2015-Mar-20 11:33N 38°39' W 009°05'1 1.1
2015-Mar-20 10:33N 38°40' W 009°06'1 0.6
2015-Mar-20 09:34N 38°39' W 009°06'3 3.3
2015-Mar-20 08:33N 38°42' W 009°08'0 0.3
2015-Mar-20 07:34N 38°42' W 009°08'4 4.0
2015-Mar-20 06:33N 38°39' W 009°05'0 0.0
2015-Mar-19 21:17N 38°39' W 009°05'3 4.3
2015-Mar-19 20:34N 38°41' W 009°08'2 2.3
2015-Mar-19 19:33N 38°39' W 009°06'3 3.2
2015-Mar-19 18:34N 38°42' W 009°08'0 0.2
2015-Mar-19 17:33N 38°42' W 009°08'1 0.8
2015-Mar-19 16:34N 38°42' W 009°08'4 3.5
2015-Mar-19 15:33N 38°39' W 009°05'2 1.8
2015-Mar-19 14:33N 38°40' W 009°07'0 0.1
2015-Mar-19 13:34N 38°40' W 009°07'2 1.6
2015-Mar-19 12:33N 38°39' W 009°05'0 0.0
2015-Mar-19 11:33N 38°39' W 009°05'3 2.7
2015-Mar-19 10:33N 38°41' W 009°08'3 2.8
2015-Mar-19 09:34N 38°39' W 009°05'1 0.9
2015-Mar-19 08:34N 38°39' W 009°06'3 3.1
2015-Mar-19 07:33N 38°42' W 009°08'0 0.4
2015-Mar-19 06:33N 38°42' W 009°08'0 0.0
2015-Mar-19 05:34N 38°42' W 009°08'4 1.3
2015-Mar-19 02:24N 38°39' W 009°05'0 0.5
2015-Mar-19 01:33N 38°39' W 009°05'0 0.0
2015-Mar-19 00:33N 38°39' W 009°05'0 0.1
2015-Mar-18 23:33N 38°39' W 009°05'1 1.2
2015-Mar-18 22:33N 38°40' W 009°07'0 0.2
2015-Mar-18 21:34N 38°40' W 009°06'1 1.5
2015-Mar-18 20:33N 38°39' W 009°05'0 0.0
2015-Mar-18 19:33N 38°39' W 009°05'1 1.3
2015-Mar-18 18:33N 38°40' W 009°06'3 2.8
2015-Mar-18 17:33N 38°42' W 009°08'4 3.9
2015-Mar-18 16:34N 38°39' W 009°05'0 0.0
2015-Mar-18 13:27N 38°39' W 009°05'1 1.5
2015-Mar-18 12:33N 38°40' W 009°06'0 0.2
2015-Mar-18 11:34N 38°40' W 009°06'1 1.3
2015-Mar-18 10:34N 38°39' W 009°05'0 0.0
2015-Mar-18 09:33N 38°39' W 009°05'0 0.0
2015-Mar-18 08:33N 38°39' W 009°05'1 0.7
2015-Mar-18 07:34N 38°39' W 009°06'1 0.6
2015-Mar-18 06:34N 38°39' W 009°05'4 0.4
2015-Mar-17 20:33N 38°42' W 009°08'  

Dump ship's entire track history